sensor_id;sensor_type;location;lat;lon;timestamp;temperature;humidity
14475;DHT22;7323;50.848;4.334;2022-12-24T00:02:11;11.80;99.90
14475;DHT22;7323;50.848;4.334;2022-12-24T00:04:43;11.80;99.90
14475;DHT22;7323;50.848;4.334;2022-12-24T00:07:28;11.70;99.90
14475;DHT22;7323;50.848;4.334;2022-12-24T00:10:04;11.70;99.90
14475;DHT22;7323;50.848;4.334;2022-12-24T00:15:52;11.60;99.90
14475;DHT22;7323;50.848;4.334;2022-12-24T00:18:56;11.60;99.90
14475;DHT22;7323;50.848;4.334;2022-12-24T00:21:56;11.60;99.90
14475;DHT22;7323;50.848;4.334;2022-12-24T00:27:57;11.60;99.90
14475;DHT22;7323;50.848;4.334;2022-12-24T00:30:44;11.70;99.90
14475;DHT22;7323;50.848;4.334;2022-12-24T00:33:25;11.70;99.90
14475;DHT22;7323;50.848;4.334;2022-12-24T00:36:02;11.60;99.90
14475;DHT22;7323;50.848;4.334;2022-12-24T00:38:38;11.40;99.90
14475;DHT22;7323;50.848;4.334;2022-12-24T00:41:19;11.30;99.90
14475;DHT22;7323;50.848;4.334;2022-12-24T00:44:13;11.40;99.90
14475;DHT22;7323;50.848;4.334;2022-12-24T00:47:12;11.30;99.90
14475;DHT22;7323;50.848;4.334;2022-12-24T00:49:47;11.30;99.90
14475;DHT22;7323;50.848;4.334;2022-12-24T00:52:31;11.30;99.90
14475;DHT22;7323;50.848;4.334;2022-12-24T00:55:14;11.30;99.90
14475;DHT22;7323;50.848;4.334;2022-12-24T01:01:33;11.40;99.90
14475;DHT22;7323;50.848;4.334;2022-12-24T01:04:40;11.60;99.90
14475;DHT22;7323;50.848;4.334;2022-12-24T01:07:27;11.60;99.90
14475;DHT22;7323;50.848;4.334;2022-12-24T01:10:00;11.60;99.90
14475;DHT22;7323;50.848;4.334;2022-12-24T01:12:48;11.50;99.90
14475;DHT22;7323;50.848;4.334;2022-12-24T01:15:38;11.40;99.90
14475;DHT22;7323;50.848;4.334;2022-12-24T01:18:18;11.40;99.90
14475;DHT22;7323;50.848;4.334;2022-12-24T01:21:13;11.40;99.90
14475;DHT22;7323;50.848;4.334;2022-12-24T01:23:57;11.30;99.90
14475;DHT22;7323;50.848;4.334;2022-12-24T01:29:48;11.20;99.90
14475;DHT22;7323;50.848;4.334;2022-12-24T01:33:08;11.20;99.90
14475;DHT22;7323;50.848;4.334;2022-12-24T01:36:23;11.30;99.90
14475;DHT22;7323;50.848;4.334;2022-12-24T01:39:14;11.40;99.90
14475;DHT22;7323;50.848;4.334;2022-12-24T01:42:22;11.30;99.90
14475;DHT22;7323;50.848;4.334;2022-12-24T01:45:45;11.40;99.90
14475;DHT22;7323;50.848;4.334;2022-12-24T01:48:41;11.40;99.90
14475;DHT22;7323;50.848;4.334;2022-12-24T01:54:38;11.50;99.90
14475;DHT22;7323;50.848;4.334;2022-12-24T01:57:16;11.50;99.90
14475;DHT22;7323;50.848;4.334;2022-12-24T02:00:14;11.50;99.90
14475;DHT22;7323;50.848;4.334;2022-12-24T02:03:46;11.40;99.90
14475;DHT22;7323;50.848;4.334;2022-12-24T02:06:19;11.40;99.90
14475;DHT22;7323;50.848;4.334;2022-12-24T02:08:51;11.40;99.90
14475;DHT22;7323;50.848;4.334;2022-12-24T02:11:37;11.40;99.90
14475;DHT22;7323;50.848;4.334;2022-12-24T02:14:26;11.50;99.90
14475;DHT22;7323;50.848;4.334;2022-12-24T02:18:00;11.50;99.90
14475;DHT22;7323;50.848;4.334;2022-12-24T02:27:49;11.60;99.90
14475;DHT22;7323;50.848;4.334;2022-12-24T02:31:02;11.60;99.90
14475;DHT22;7323;50.848;4.334;2022-12-24T02:37:17;11.60;99.90
14475;DHT22;7323;50.848;4.334;2022-12-24T02:50:26;11.60;99.90
14475;DHT22;7323;50.848;4.334;2022-12-24T03:17:08;11.20;99.90
14475;DHT22;7323;50.848;4.334;2022-12-24T03:27:15;11.20;99.90
14475;DHT22;7323;50.848;4.334;2022-12-24T03:33:42;11.20;99.90
14475;DHT22;7323;50.848;4.334;2022-12-24T03:46:49;11.40;99.90
14475;DHT22;7323;50.848;4.334;2022-12-24T03:53:17;11.50;99.90
14475;DHT22;7323;50.848;4.334;2022-12-24T04:41:30;11.50;99.90
14475;DHT22;7323;50.848;4.334;2022-12-24T04:44:31;11.50;99.90
14475;DHT22;7323;50.848;4.334;2022-12-24T04:47:46;11.40;99.90
14475;DHT22;7323;50.848;4.334;2022-12-24T05:00:20;11.40;99.90
14475;DHT22;7323;50.848;4.334;2022-12-24T05:11:00;11.40;99.90
14475;DHT22;7323;50.848;4.334;2022-12-24T05:24:06;11.30;99.90
14475;DHT22;7323;50.848;4.334;2022-12-24T05:34:22;11.20;99.90
14475;DHT22;7323;50.848;4.334;2022-12-24T05:37:25;11.20;99.90
14475;DHT22;7323;50.848;4.334;2022-12-24T05:47:53;11.20;99.90
14475;DHT22;7323;50.848;4.334;2022-12-24T06:04:58;11.20;99.90
14475;DHT22;7323;50.848;4.334;2022-12-24T06:08:04;11.20;99.90
14475;DHT22;7323;50.848;4.334;2022-12-24T06:41:54;11.10;99.90
14475;DHT22;7323;50.848;4.334;2022-12-24T06:51:03;11.20;99.90
14475;DHT22;7323;50.848;4.334;2022-12-24T07:58:00;10.90;99.90
14475;DHT22;7323;50.848;4.334;2022-12-24T08:00:40;11.00;99.90
14475;DHT22;7323;50.848;4.334;2022-12-24T08:03:26;10.80;99.90
14475;DHT22;7323;50.848;4.334;2022-12-24T08:06:39;11.00;99.90
14475;DHT22;7323;50.848;4.334;2022-12-24T08:12:48;11.10;99.90
14475;DHT22;7323;50.848;4.334;2022-12-24T08:15:15;11.00;99.90
14475;DHT22;7323;50.848;4.334;2022-12-24T08:17:45;11.20;99.90
14475;DHT22;7323;50.848;4.334;2022-12-24T08:20:31;11.20;99.90
14475;DHT22;7323;50.848;4.334;2022-12-24T08:32:14;11.00;99.90
14475;DHT22;7323;50.848;4.334;2022-12-24T08:35:34;11.00;99.90
14475;DHT22;7323;50.848;4.334;2022-12-24T08:45:02;11.00;99.90
14475;DHT22;7323;50.848;4.334;2022-12-24T08:47:30;11.00;99.90
14475;DHT22;7323;50.848;4.334;2022-12-24T08:50:39;11.00;99.90
14475;DHT22;7323;50.848;4.334;2022-12-24T08:57:36;11.10;99.90
14475;DHT22;7323;50.848;4.334;2022-12-24T09:00:41;11.30;99.90
14475;DHT22;7323;50.848;4.334;2022-12-24T09:03:41;11.10;99.90
14475;DHT22;7323;50.848;4.334;2022-12-24T09:07:05;11.10;99.90
14475;DHT22;7323;50.848;4.334;2022-12-24T09:17:11;11.20;99.90
14475;DHT22;7323;50.848;4.334;2022-12-24T09:20:05;11.30;99.90
14475;DHT22;7323;50.848;4.334;2022-12-24T09:22:49;11.30;99.90
14475;DHT22;7323;50.848;4.334;2022-12-24T09:25:15;11.60;99.90
14475;DHT22;7323;50.848;4.334;2022-12-24T09:27:43;11.40;99.90
14475;DHT22;7323;50.848;4.334;2022-12-24T09:30:11;11.40;99.90
14475;DHT22;7323;50.848;4.334;2022-12-24T09:32:40;11.40;99.90
14475;DHT22;7323;50.848;4.334;2022-12-24T09:35:07;11.50;99.90
14475;DHT22;7323;50.848;4.334;2022-12-24T09:37:36;11.60;99.90
14475;DHT22;7323;50.848;4.334;2022-12-24T09:40:03;11.70;99.90
14475;DHT22;7323;50.848;4.334;2022-12-24T09:45:28;11.80;99.90
14475;DHT22;7323;50.848;4.334;2022-12-24T09:48:23;11.70;99.90
14475;DHT22;7323;50.848;4.334;2022-12-24T09:51:10;11.60;99.90
14475;DHT22;7323;50.848;4.334;2022-12-24T09:56:33;11.60;99.90
14475;DHT22;7323;50.848;4.334;2022-12-24T09:59:08;11.70;99.90
14475;DHT22;7323;50.848;4.334;2022-12-24T10:02:08;11.70;99.90
14475;DHT22;7323;50.848;4.334;2022-12-24T10:24:17;11.90;99.90
14475;DHT22;7323;50.848;4.334;2022-12-24T10:27:11;11.80;99.90
14475;DHT22;7323;50.848;4.334;2022-12-24T10:32:54;11.80;99.90
14475;DHT22;7323;50.848;4.334;2022-12-24T10:35:27;11.80;99.90
14475;DHT22;7323;50.848;4.334;2022-12-24T10:37:54;11.90;99.90
14475;DHT22;7323;50.848;4.334;2022-12-24T10:40:38;12.00;99.90
14475;DHT22;7323;50.848;4.334;2022-12-24T10:43:24;12.00;99.90
14475;DHT22;7323;50.848;4.334;2022-12-24T10:45:58;12.10;99.90
14475;DHT22;7323;50.848;4.334;2022-12-24T10:54:27;12.10;99.90
14475;DHT22;7323;50.848;4.334;2022-12-24T10:57:24;12.20;99.90
14475;DHT22;7323;50.848;4.334;2022-12-24T10:59:55;12.30;99.90
14475;DHT22;7323;50.848;4.334;2022-12-24T11:05:38;12.20;99.90
14475;DHT22;7323;50.848;4.334;2022-12-24T11:08:17;12.30;99.90
14475;DHT22;7323;50.848;4.334;2022-12-24T11:10:58;12.30;99.90
14475;DHT22;7323;50.848;4.334;2022-12-24T11:13:33;12.40;99.90
14475;DHT22;7323;50.848;4.334;2022-12-24T11:18:56;12.50;99.90
14475;DHT22;7323;50.848;4.334;2022-12-24T11:21:28;12.50;99.90
14475;DHT22;7323;50.848;4.334;2022-12-24T11:26:41;12.40;99.90
14475;DHT22;7323;50.848;4.334;2022-12-24T11:31:45;12.50;99.90
14475;DHT22;7323;50.848;4.334;2022-12-24T11:34:29;12.50;99.90
14475;DHT22;7323;50.848;4.334;2022-12-24T11:37:20;12.40;99.90
14475;DHT22;7323;50.848;4.334;2022-12-24T11:39:52;12.40;99.90
14475;DHT22;7323;50.848;4.334;2022-12-24T11:42:31;12.50;99.90
14475;DHT22;7323;50.848;4.334;2022-12-24T11:45:32;12.60;99.90
14475;DHT22;7323;50.848;4.334;2022-12-24T11:48:25;12.60;99.90
14475;DHT22;7323;50.848;4.334;2022-12-24T11:51:03;12.60;99.90
14475;DHT22;7323;50.848;4.334;2022-12-24T11:53:43;12.70;99.90
14475;DHT22;7323;50.848;4.334;2022-12-24T11:56:26;12.70;99.90
14475;DHT22;7323;50.848;4.334;2022-12-24T11:59:02;12.80;99.90
14475;DHT22;7323;50.848;4.334;2022-12-24T12:01:38;12.90;99.90
14475;DHT22;7323;50.848;4.334;2022-12-24T12:04:18;13.10;99.90
14475;DHT22;7323;50.848;4.334;2022-12-24T12:06:55;13.00;99.90
14475;DHT22;7323;50.848;4.334;2022-12-24T12:09:30;13.10;99.90
14475;DHT22;7323;50.848;4.334;2022-12-24T12:12:11;13.10;99.20
14475;DHT22;7323;50.848;4.334;2022-12-24T12:14:48;13.10;99.90
14475;DHT22;7323;50.848;4.334;2022-12-24T12:25:54;13.00;99.30
14475;DHT22;7323;50.848;4.334;2022-12-24T12:28:45;13.00;97.40
14475;DHT22;7323;50.848;4.334;2022-12-24T12:31:36;13.00;97.80
14475;DHT22;7323;50.848;4.334;2022-12-24T12:36:52;13.00;96.40
14475;DHT22;7323;50.848;4.334;2022-12-24T12:39:23;13.10;96.50
14475;DHT22;7323;50.848;4.334;2022-12-24T12:55:59;13.30;92.40
14475;DHT22;7323;50.848;4.334;2022-12-24T13:12:06;13.30;91.70
14475;DHT22;7323;50.848;4.334;2022-12-24T13:18:06;13.20;92.60
14475;DHT22;7323;50.848;4.334;2022-12-24T13:20:41;13.30;93.50
14475;DHT22;7323;50.848;4.334;2022-12-24T13:23:14;13.30;95.40
14475;DHT22;7323;50.848;4.334;2022-12-24T13:25:42;13.30;93.60
14475;DHT22;7323;50.848;4.334;2022-12-24T13:36:06;13.30;91.90
14475;DHT22;7323;50.848;4.334;2022-12-24T13:44:15;13.40;91.70
14475;DHT22;7323;50.848;4.334;2022-12-24T13:47:15;13.60;90.60
14475;DHT22;7323;50.848;4.334;2022-12-24T13:49:45;13.60;86.90
14475;DHT22;7323;50.848;4.334;2022-12-24T13:52:22;13.60;87.80
14475;DHT22;7323;50.848;4.334;2022-12-24T13:54:59;13.70;87.90
14475;DHT22;7323;50.848;4.334;2022-12-24T14:08:15;13.70;90.20
14475;DHT22;7323;50.848;4.334;2022-12-24T14:11:25;13.40;91.20
14475;DHT22;7323;50.848;4.334;2022-12-24T14:13:52;13.20;92.50
14475;DHT22;7323;50.848;4.334;2022-12-24T14:16:29;13.20;93.10
14475;DHT22;7323;50.848;4.334;2022-12-24T14:18:59;13.20;92.50
14475;DHT22;7323;50.848;4.334;2022-12-24T14:21:33;13.30;93.30
14475;DHT22;7323;50.848;4.334;2022-12-24T14:26:50;13.30;92.00
14475;DHT22;7323;50.848;4.334;2022-12-24T14:29:27;13.30;91.80
14475;DHT22;7323;50.848;4.334;2022-12-24T14:31:57;13.20;92.10
14475;DHT22;7323;50.848;4.334;2022-12-24T14:34:23;13.20;92.30
14475;DHT22;7323;50.848;4.334;2022-12-24T14:36:52;13.20;93.00
14475;DHT22;7323;50.848;4.334;2022-12-24T14:39:31;13.30;91.40
14475;DHT22;7323;50.848;4.334;2022-12-24T14:45:18;13.50;88.40
14475;DHT22;7323;50.848;4.334;2022-12-24T14:56:40;13.20;94.80
14475;DHT22;7323;50.848;4.334;2022-12-24T14:59:18;13.30;94.00
14475;DHT22;7323;50.848;4.334;2022-12-24T15:01:45;13.30;94.00
14475;DHT22;7323;50.848;4.334;2022-12-24T15:04:15;13.20;93.80
14475;DHT22;7323;50.848;4.334;2022-12-24T15:06:44;13.30;94.60
14475;DHT22;7323;50.848;4.334;2022-12-24T15:11:59;13.20;93.90
14475;DHT22;7323;50.848;4.334;2022-12-24T15:14:27;13.40;93.90
14475;DHT22;7323;50.848;4.334;2022-12-24T15:17:04;13.30;94.20
14475;DHT22;7323;50.848;4.334;2022-12-24T15:19:37;13.10;95.10
14475;DHT22;7323;50.848;4.334;2022-12-24T15:22:27;13.20;94.70
14475;DHT22;7323;50.848;4.334;2022-12-24T15:24:53;13.20;95.30
14475;DHT22;7323;50.848;4.334;2022-12-24T15:27:25;13.30;95.70
14475;DHT22;7323;50.848;4.334;2022-12-24T15:29:54;13.40;94.00
14475;DHT22;7323;50.848;4.334;2022-12-24T15:32:22;13.40;94.20
14475;DHT22;7323;50.848;4.334;2022-12-24T15:34:53;13.40;93.90
14475;DHT22;7323;50.848;4.334;2022-12-24T15:37:24;13.40;94.10
14475;DHT22;7323;50.848;4.334;2022-12-24T15:42:23;13.60;91.40
14475;DHT22;7323;50.848;4.334;2022-12-24T15:45:02;13.60;91.20
14475;DHT22;7323;50.848;4.334;2022-12-24T15:47:35;13.60;91.70
14475;DHT22;7323;50.848;4.334;2022-12-24T15:50:15;13.40;93.90
14475;DHT22;7323;50.848;4.334;2022-12-24T15:52:43;13.20;95.00
14475;DHT22;7323;50.848;4.334;2022-12-24T15:55:27;13.20;96.80
14475;DHT22;7323;50.848;4.334;2022-12-24T15:57:54;13.10;98.10
14475;DHT22;7323;50.848;4.334;2022-12-24T16:00:24;13.00;99.40
14475;DHT22;7323;50.848;4.334;2022-12-24T16:03:16;13.00;99.90
14475;DHT22;7323;50.848;4.334;2022-12-24T16:05:43;13.00;99.90
14475;DHT22;7323;50.848;4.334;2022-12-24T16:10:43;13.00;99.90
14475;DHT22;7323;50.848;4.334;2022-12-24T16:13:20;12.70;99.90
14475;DHT22;7323;50.848;4.334;2022-12-24T16:15:51;12.70;99.90
14475;DHT22;7323;50.848;4.334;2022-12-24T16:18:22;12.70;99.90
14475;DHT22;7323;50.848;4.334;2022-12-24T16:20:52;12.60;99.90
14475;DHT22;7323;50.848;4.334;2022-12-24T16:23:36;12.60;99.90
14475;DHT22;7323;50.848;4.334;2022-12-24T16:26:09;12.60;99.90
14475;DHT22;7323;50.848;4.334;2022-12-24T16:28:40;12.50;99.90
14475;DHT22;7323;50.848;4.334;2022-12-24T16:31:38;12.50;99.90
14475;DHT22;7323;50.848;4.334;2022-12-24T16:34:16;12.50;99.90
14475;DHT22;7323;50.848;4.334;2022-12-24T16:36:56;12.50;99.90
14475;DHT22;7323;50.848;4.334;2022-12-24T16:39:33;12.40;99.90
14475;DHT22;7323;50.848;4.334;2022-12-24T16:42:03;12.40;99.90
14475;DHT22;7323;50.848;4.334;2022-12-24T16:44:47;12.40;99.90
14475;DHT22;7323;50.848;4.334;2022-12-24T16:47:23;12.40;99.90
14475;DHT22;7323;50.848;4.334;2022-12-24T16:50:03;12.30;99.90
14475;DHT22;7323;50.848;4.334;2022-12-24T16:52:34;12.30;99.90
14475;DHT22;7323;50.848;4.334;2022-12-24T16:58:14;12.40;99.90
14475;DHT22;7323;50.848;4.334;2022-12-24T17:00:41;12.40;99.90
14475;DHT22;7323;50.848;4.334;2022-12-24T17:03:07;12.40;99.90
14475;DHT22;7323;50.848;4.334;2022-12-24T17:05:37;12.40;99.90
14475;DHT22;7323;50.848;4.334;2022-12-24T17:08:07;12.50;99.90
14475;DHT22;7323;50.848;4.334;2022-12-24T17:10:36;12.60;99.90
14475;DHT22;7323;50.848;4.334;2022-12-24T17:13:05;12.70;99.90
14475;DHT22;7323;50.848;4.334;2022-12-24T17:15:40;12.40;99.90
14475;DHT22;7323;50.848;4.334;2022-12-24T17:18:23;12.40;99.90
14475;DHT22;7323;50.848;4.334;2022-12-24T17:21:09;12.30;99.90
14475;DHT22;7323;50.848;4.334;2022-12-24T17:23:42;12.30;99.90
14475;DHT22;7323;50.848;4.334;2022-12-24T17:26:29;12.20;99.90
14475;DHT22;7323;50.848;4.334;2022-12-24T17:28:58;12.20;99.90
14475;DHT22;7323;50.848;4.334;2022-12-24T17:31:31;12.20;99.90
14475;DHT22;7323;50.848;4.334;2022-12-24T17:34:10;12.10;99.90
14475;DHT22;7323;50.848;4.334;2022-12-24T17:36:44;12.10;99.90
14475;DHT22;7323;50.848;4.334;2022-12-24T17:39:20;12.00;99.90
14475;DHT22;7323;50.848;4.334;2022-12-24T17:41:52;12.00;99.90
14475;DHT22;7323;50.848;4.334;2022-12-24T17:44:20;12.00;99.90
14475;DHT22;7323;50.848;4.334;2022-12-24T17:46:46;11.90;99.90
14475;DHT22;7323;50.848;4.334;2022-12-24T17:49:28;11.80;99.90
14475;DHT22;7323;50.848;4.334;2022-12-24T17:52:03;11.80;99.90
14475;DHT22;7323;50.848;4.334;2022-12-24T17:54:31;11.80;99.90
14475;DHT22;7323;50.848;4.334;2022-12-24T17:56:59;11.80;99.90
14475;DHT22;7323;50.848;4.334;2022-12-24T17:59:41;11.90;99.90
14475;DHT22;7323;50.848;4.334;2022-12-24T18:02:11;11.60;99.90
14475;DHT22;7323;50.848;4.334;2022-12-24T18:04:41;11.70;99.90
14475;DHT22;7323;50.848;4.334;2022-12-24T18:07:11;11.60;99.90
14475;DHT22;7323;50.848;4.334;2022-12-24T18:09:47;11.80;99.90
14475;DHT22;7323;50.848;4.334;2022-12-24T18:12:24;11.50;99.90
14475;DHT22;7323;50.848;4.334;2022-12-24T18:15:12;11.50;99.90
14475;DHT22;7323;50.848;4.334;2022-12-24T18:17:51;11.50;99.90
14475;DHT22;7323;50.848;4.334;2022-12-24T18:20:17;11.70;99.90
14475;DHT22;7323;50.848;4.334;2022-12-24T18:22:46;11.40;99.90
14475;DHT22;7323;50.848;4.334;2022-12-24T18:25:22;11.40;99.90
14475;DHT22;7323;50.848;4.334;2022-12-24T18:27:49;11.30;99.90
14475;DHT22;7323;50.848;4.334;2022-12-24T18:31:01;11.30;99.90
14475;DHT22;7323;50.848;4.334;2022-12-24T18:36:18;11.30;99.90
14475;DHT22;7323;50.848;4.334;2022-12-24T18:38:49;11.40;99.90
14475;DHT22;7323;50.848;4.334;2022-12-24T18:41:28;11.40;99.90
14475;DHT22;7323;50.848;4.334;2022-12-24T18:43:57;11.40;99.90
14475;DHT22;7323;50.848;4.334;2022-12-24T18:46:26;11.40;99.90
14475;DHT22;7323;50.848;4.334;2022-12-24T18:48:54;11.40;99.90
14475;DHT22;7323;50.848;4.334;2022-12-24T18:51:27;11.20;99.90
14475;DHT22;7323;50.848;4.334;2022-12-24T18:53:57;11.20;99.90
14475;DHT22;7323;50.848;4.334;2022-12-24T18:56:34;11.20;99.90
14475;DHT22;7323;50.848;4.334;2022-12-24T18:59:19;11.30;99.90
14475;DHT22;7323;50.848;4.334;2022-12-24T19:02:06;11.30;99.90
14475;DHT22;7323;50.848;4.334;2022-12-24T19:04:37;11.30;99.90
14475;DHT22;7323;50.848;4.334;2022-12-24T19:07:11;11.30;99.90
14475;DHT22;7323;50.848;4.334;2022-12-24T19:09:56;11.30;99.90
14475;DHT22;7323;50.848;4.334;2022-12-24T19:12:33;11.30;99.90
14475;DHT22;7323;50.848;4.334;2022-12-24T19:15:39;11.30;99.90
14475;DHT22;7323;50.848;4.334;2022-12-24T19:22:17;11.30;99.90
14475;DHT22;7323;50.848;4.334;2022-12-24T19:24:46;11.30;99.90
14475;DHT22;7323;50.848;4.334;2022-12-24T19:27:16;11.30;99.90
14475;DHT22;7323;50.848;4.334;2022-12-24T19:29:41;11.30;99.90
14475;DHT22;7323;50.848;4.334;2022-12-24T19:35:24;11.30;99.90
14475;DHT22;7323;50.848;4.334;2022-12-24T19:38:07;11.30;99.90
14475;DHT22;7323;50.848;4.334;2022-12-24T19:40:55;11.40;99.90
14475;DHT22;7323;50.848;4.334;2022-12-24T19:46:35;11.30;99.90
14475;DHT22;7323;50.848;4.334;2022-12-24T19:49:24;11.30;99.90
14475;DHT22;7323;50.848;4.334;2022-12-24T19:52:00;11.40;99.90
14475;DHT22;7323;50.848;4.334;2022-12-24T19:54:54;11.40;99.90
14475;DHT22;7323;50.848;4.334;2022-12-24T19:57:42;11.40;99.90
14475;DHT22;7323;50.848;4.334;2022-12-24T20:00:27;11.50;99.90
14475;DHT22;7323;50.848;4.334;2022-12-24T20:02:56;11.40;99.90
14475;DHT22;7323;50.848;4.334;2022-12-24T20:05:44;11.40;99.90
14475;DHT22;7323;50.848;4.334;2022-12-24T20:08:13;11.50;99.90
14475;DHT22;7323;50.848;4.334;2022-12-24T20:10:53;11.40;99.90
14475;DHT22;7323;50.848;4.334;2022-12-24T20:13:45;11.40;99.90
14475;DHT22;7323;50.848;4.334;2022-12-24T20:16:49;11.40;99.90
14475;DHT22;7323;50.848;4.334;2022-12-24T20:19:18;11.30;99.90
14475;DHT22;7323;50.848;4.334;2022-12-24T20:22:28;11.30;99.90
14475;DHT22;7323;50.848;4.334;2022-12-24T20:25:15;11.30;99.90
14475;DHT22;7323;50.848;4.334;2022-12-24T20:28:31;11.30;99.90
14475;DHT22;7323;50.848;4.334;2022-12-24T20:30:43;11.30;99.90
14475;DHT22;7323;50.848;4.334;2022-12-24T20:33:56;11.30;99.90
14475;DHT22;7323;50.848;4.334;2022-12-24T20:36:37;11.30;99.90
14475;DHT22;7323;50.848;4.334;2022-12-24T20:39:25;11.30;99.90
14475;DHT22;7323;50.848;4.334;2022-12-24T20:42:10;11.30;99.90
14475;DHT22;7323;50.848;4.334;2022-12-24T20:44:53;11.40;99.90
14475;DHT22;7323;50.848;4.334;2022-12-24T20:47:33;11.30;99.90
14475;DHT22;7323;50.848;4.334;2022-12-24T20:50:15;11.40;99.90
14475;DHT22;7323;50.848;4.334;2022-12-24T20:52:51;11.30;99.90
14475;DHT22;7323;50.848;4.334;2022-12-24T20:55:28;11.40;99.90
14475;DHT22;7323;50.848;4.334;2022-12-24T20:57:59;11.40;99.90
14475;DHT22;7323;50.848;4.334;2022-12-24T21:00:40;11.50;99.90
14475;DHT22;7323;50.848;4.334;2022-12-24T21:03:11;11.60;99.90
14475;DHT22;7323;50.848;4.334;2022-12-24T21:05:48;11.50;99.90
14475;DHT22;7323;50.848;4.334;2022-12-24T21:08:17;11.50;99.90
14475;DHT22;7323;50.848;4.334;2022-12-24T21:10:49;11.50;99.90
14475;DHT22;7323;50.848;4.334;2022-12-24T21:13:48;11.60;99.90
14475;DHT22;7323;50.848;4.334;2022-12-24T21:16:26;11.60;99.90
14475;DHT22;7323;50.848;4.334;2022-12-24T21:18:55;11.60;99.90
14475;DHT22;7323;50.848;4.334;2022-12-24T21:21:40;11.50;99.90
14475;DHT22;7323;50.848;4.334;2022-12-24T21:24:06;11.50;99.90
14475;DHT22;7323;50.848;4.334;2022-12-24T21:26:33;11.50;99.90
14475;DHT22;7323;50.848;4.334;2022-12-24T21:29:05;11.50;99.90
14475;DHT22;7323;50.848;4.334;2022-12-24T21:31:43;11.40;99.90
14475;DHT22;7323;50.848;4.334;2022-12-24T21:34:09;11.50;99.90
14475;DHT22;7323;50.848;4.334;2022-12-24T21:36:37;11.50;99.90
14475;DHT22;7323;50.848;4.334;2022-12-24T21:39:08;11.70;99.90
14475;DHT22;7323;50.848;4.334;2022-12-24T21:41:42;11.50;99.90
14475;DHT22;7323;50.848;4.334;2022-12-24T21:44:17;11.60;99.90
14475;DHT22;7323;50.848;4.334;2022-12-24T21:47:14;11.60;99.90
14475;DHT22;7323;50.848;4.334;2022-12-24T21:49:53;11.50;99.90
14475;DHT22;7323;50.848;4.334;2022-12-24T21:52:58;11.50;99.90
14475;DHT22;7323;50.848;4.334;2022-12-24T21:55:43;11.50;99.90
14475;DHT22;7323;50.848;4.334;2022-12-24T21:58:09;11.60;99.90
14475;DHT22;7323;50.848;4.334;2022-12-24T22:00:41;11.60;99.90
14475;DHT22;7323;50.848;4.334;2022-12-24T22:03:15;11.60;99.90
14475;DHT22;7323;50.848;4.334;2022-12-24T22:05:44;11.50;99.90
14475;DHT22;7323;50.848;4.334;2022-12-24T22:08:16;11.50;99.90
14475;DHT22;7323;50.848;4.334;2022-12-24T22:11:11;11.50;99.90
14475;DHT22;7323;50.848;4.334;2022-12-24T22:13:59;11.40;99.90
14475;DHT22;7323;50.848;4.334;2022-12-24T22:20:07;11.50;99.90
14475;DHT22;7323;50.848;4.334;2022-12-24T22:23:20;11.50;99.90
14475;DHT22;7323;50.848;4.334;2022-12-24T22:25:47;11.40;99.90
14475;DHT22;7323;50.848;4.334;2022-12-24T22:28:16;11.50;99.90
14475;DHT22;7323;50.848;4.334;2022-12-24T22:30:48;11.40;99.90
14475;DHT22;7323;50.848;4.334;2022-12-24T22:33:15;11.40;99.90
14475;DHT22;7323;50.848;4.334;2022-12-24T22:35:44;11.40;99.90
14475;DHT22;7323;50.848;4.334;2022-12-24T22:38:10;11.40;99.90
14475;DHT22;7323;50.848;4.334;2022-12-24T22:40:39;11.40;99.90
14475;DHT22;7323;50.848;4.334;2022-12-24T22:43:08;11.30;99.90
14475;DHT22;7323;50.848;4.334;2022-12-24T22:45:58;11.40;99.90
14475;DHT22;7323;50.848;4.334;2022-12-24T22:48:29;11.40;99.90
14475;DHT22;7323;50.848;4.334;2022-12-24T22:51:03;11.40;99.90
14475;DHT22;7323;50.848;4.334;2022-12-24T22:53:36;11.30;99.90
14475;DHT22;7323;50.848;4.334;2022-12-24T22:56:03;11.30;99.90
14475;DHT22;7323;50.848;4.334;2022-12-24T22:58:33;11.40;99.90
14475;DHT22;7323;50.848;4.334;2022-12-24T23:01:08;11.40;99.90
14475;DHT22;7323;50.848;4.334;2022-12-24T23:03:34;11.40;99.90
14475;DHT22;7323;50.848;4.334;2022-12-24T23:06:10;11.30;99.90
14475;DHT22;7323;50.848;4.334;2022-12-24T23:08:58;11.40;99.90
14475;DHT22;7323;50.848;4.334;2022-12-24T23:14:50;11.40;99.90
14475;DHT22;7323;50.848;4.334;2022-12-24T23:21:15;11.40;99.90
14475;DHT22;7323;50.848;4.334;2022-12-24T23:27:13;11.50;99.90
14475;DHT22;7323;50.848;4.334;2022-12-24T23:29:48;11.50;99.90
14475;DHT22;7323;50.848;4.334;2022-12-24T23:32:27;11.50;99.90
14475;DHT22;7323;50.848;4.334;2022-12-24T23:35:07;11.50;99.90
14475;DHT22;7323;50.848;4.334;2022-12-24T23:38:08;11.50;99.90
14475;DHT22;7323;50.848;4.334;2022-12-24T23:41:18;11.50;99.90
14475;DHT22;7323;50.848;4.334;2022-12-24T23:44:07;11.50;99.90
14475;DHT22;7323;50.848;4.334;2022-12-24T23:53:26;11.40;99.90
14475;DHT22;7323;50.848;4.334;2022-12-24T23:56:10;11.40;99.90
14475;DHT22;7323;50.848;4.334;2022-12-24T23:59:15;11.40;99.90
